Time;durP1;ratioP1;P1;durP2;ratioP2;P2;SDS_P1;SDS_P2;PMS_P1;PMS_P2;Temp;Humidity;BMP_temperature;BMP_pressure;BME280_temperature;BME280_humidity;BME280_pressure;Samples;Min_cycle;Max_cycle;Signal;HPM_P1;HPM_P2
2021/10/27 00:01:53;;;;;;;23.27;13.40;;;;;;;6.75;100.00;101480.50;5039673;28;20222;-72
2021/10/27 00:04:19;;;;;;;21.00;13.00;;;;;;;6.72;100.00;101485.66;5028615;28;20196;-73
2021/10/27 00:06:45;;;;;;;16.33;11.30;;;;;;;6.69;100.00;101485.69;5036179;28;20218;-72
2021/10/27 00:09:12;;;;;;;17.73;11.53;;;;;;;6.62;100.00;101487.38;5045019;28;20317;-72
2021/10/27 00:11:38;;;;;;;21.50;11.67;;;;;;;6.54;100.00;101478.69;5040345;28;20228;-72
2021/10/27 00:14:05;;;;;;;16.93;11.20;;;;;;;6.49;100.00;101480.41;5037984;28;20206;-72
2021/10/27 00:16:32;;;;;;;18.33;10.93;;;;;;;6.41;100.00;101478.66;5044322;28;20222;-72
2021/10/27 00:19:00;;;;;;;15.67;10.37;;;;;;;6.34;100.00;101479.47;5036866;28;20195;-71
2021/10/27 00:21:27;;;;;;;14.70;10.53;;;;;;;6.30;100.00;101480.31;5041138;28;20222;-72
2021/10/27 00:23:53;;;;;;;16.57;10.63;;;;;;;6.24;100.00;101488.94;5032793;28;20203;-72
2021/10/27 00:26:20;;;;;;;18.60;10.70;;;;;;;6.20;100.00;101486.31;5039131;28;20207;-71
2021/10/27 00:28:46;;;;;;;15.20;10.43;;;;;;;6.15;100.00;101491.44;5045412;28;20211;-71
2021/10/27 00:31:12;;;;;;;14.63;9.53;;;;;;;6.09;100.00;101486.25;5043195;28;20625;-73
2021/10/27 00:33:40;;;;;;;14.07;9.17;;;;;;;6.01;100.00;101493.94;5042571;28;20856;-72
2021/10/27 00:36:08;;;;;;;17.17;9.10;;;;;;;6.00;100.00;101493.97;5039865;28;20233;-72
2021/10/27 00:38:34;;;;;;;14.03;9.93;;;;;;;5.92;100.00;101493.00;5040368;28;20235;-72
2021/10/27 00:41:01;;;;;;;16.27;10.40;;;;;;;5.87;100.00;101496.44;5041044;28;20227;-71
2021/10/27 00:43:27;;;;;;;13.63;9.20;;;;;;;5.83;100.00;101491.22;5032880;28;20211;-73
2021/10/27 00:45:53;;;;;;;17.47;9.60;;;;;;;5.77;100.00;101494.63;5037791;28;20204;-72
2021/10/27 00:48:20;;;;;;;12.87;9.20;;;;;;;5.73;100.00;101498.03;5032583;28;20564;-72
2021/10/27 00:50:47;;;;;;;14.43;9.50;;;;;;;5.71;100.00;101486.81;5040800;28;20206;-71
2021/10/27 00:53:14;;;;;;;14.87;9.23;;;;;;;5.67;100.00;101493.69;5050722;28;20198;-72
2021/10/27 00:55:41;;;;;;;14.73;9.43;;;;;;;5.62;100.00;101497.94;5035092;28;20214;-72
2021/10/27 00:58:08;;;;;;;15.83;9.03;;;;;;;5.58;100.00;101496.19;5030304;28;20207;-71
2021/10/27 01:00:35;;;;;;;15.97;9.73;;;;;;;5.54;100.00;101485.81;5036541;28;20554;-72
2021/10/27 01:03:02;;;;;;;16.50;10.07;;;;;;;5.50;100.00;101493.56;5043315;28;20203;-71
2021/10/27 01:05:29;;;;;;;13.50;9.87;;;;;;;5.47;100.00;101485.75;5043713;28;20207;-71
2021/10/27 01:07:56;;;;;;;15.70;9.93;;;;;;;5.45;100.00;101491.75;5031865;28;20205;-71
2021/10/27 01:10:24;;;;;;;17.47;9.77;;;;;;;5.44;100.00;101490.91;5040329;28;20211;-72
2021/10/27 01:12:50;;;;;;;14.93;9.23;;;;;;;5.40;100.00;101493.44;5041521;28;20230;-72
2021/10/27 01:15:18;;;;;;;14.77;9.03;;;;;;;5.37;100.00;101498.59;5038109;28;20199;-71
2021/10/27 01:17:45;;;;;;;15.20;9.67;;;;;;;5.32;100.00;101483.91;5040388;28;20260;-71
2021/10/27 01:20:13;;;;;;;16.10;10.23;;;;;;;5.29;100.00;101490.75;5039772;28;20237;-72
2021/10/27 01:22:40;;;;;;;15.10;9.17;;;;;;;5.26;100.00;101485.59;5048054;28;20278;-71
2021/10/27 01:25:09;;;;;;;15.87;9.70;;;;;;;5.25;100.00;101486.41;5041066;28;20202;-70
2021/10/27 01:27:39;;;;;;;17.93;10.10;;;;;;;5.25;100.00;101481.25;5036947;28;20791;-71
2021/10/27 01:30:11;;;;;;;14.37;9.17;;;;;;;5.22;100.00;101474.31;5036883;28;20196;-71
2021/10/27 01:32:38;;;;;;;17.53;9.93;;;;;;;5.23;100.00;101481.22;5037029;28;20223;-71
2021/10/27 01:35:07;;;;;;;14.53;9.90;;;;;;;5.24;100.00;101476.91;5039816;28;20196;-72
2021/10/27 01:37:35;;;;;;;17.67;9.73;;;;;;;5.22;100.00;101478.63;5035154;28;20223;-73
2021/10/27 01:40:02;;;;;;;20.03;9.93;;;;;;;5.22;100.00;101474.31;5042132;28;20261;-72
2021/10/27 01:42:28;;;;;;;15.77;10.43;;;;;;;5.24;100.00;101471.75;5036683;28;20225;-73
2021/10/27 01:44:55;;;;;;;18.67;11.03;;;;;;;5.24;100.00;101464.88;5033957;28;20203;-71
2021/10/27 01:47:21;;;;;;;17.40;10.23;;;;;;;5.22;100.00;101468.28;5039044;28;20209;-71
2021/10/27 01:49:48;;;;;;;17.50;10.20;;;;;;;5.22;100.00;101460.53;5042925;28;20289;-71
2021/10/27 01:52:14;;;;;;;20.13;10.33;;;;;;;5.23;100.00;101476.06;5038391;28;20257;-71
2021/10/27 01:54:42;;;;;;;17.57;11.37;;;;;;;5.21;100.00;101477.78;5044881;28;20203;-71
2021/10/27 01:57:09;;;;;;;16.23;10.23;;;;;;;5.20;100.00;101478.59;5036780;28;20227;-72
2021/10/27 01:59:35;;;;;;;17.27;9.97;;;;;;;5.20;100.00;101476.03;5043691;28;20191;-72
2021/10/27 02:02:02;;;;;;;18.73;10.50;;;;;;;5.20;100.00;101473.44;5033183;28;20222;-71
2021/10/27 02:04:28;;;;;;;17.57;10.60;;;;;;;5.23;100.00;101467.44;5044160;28;20203;-73
2021/10/27 02:06:55;;;;;;;17.20;9.93;;;;;;;5.26;100.00;101468.34;5036531;28;20282;-74
2021/10/27 02:09:22;;;;;;;21.57;11.27;;;;;;;5.28;100.00;101466.63;5040920;28;20202;-72
2021/10/27 02:11:50;;;;;;;18.20;11.10;;;;;;;5.28;100.00;101476.97;5039272;28;20220;-71
2021/10/27 02:14:16;;;;;;;23.07;11.23;;;;;;;5.32;100.00;101470.97;5040100;28;20720;-72
2021/10/27 02:16:43;;;;;;;20.40;11.17;;;;;;;5.31;100.00;101483.88;5034716;28;20311;-71
2021/10/27 02:19:09;;;;;;;19.30;11.50;;;;;;;5.30;100.00;101483.03;5034048;28;20199;-73
2021/10/27 02:21:36;;;;;;;27.43;11.77;;;;;;;5.29;100.00;101481.31;5038882;28;20230;-73
2021/10/27 02:24:03;;;;;;;21.67;11.03;;;;;;;5.29;100.00;101489.06;5039250;28;20196;-71
2021/10/27 02:26:29;;;;;;;19.53;11.23;;;;;;;5.28;100.00;101494.22;5034057;28;20230;-72
2021/10/27 02:28:57;;;;;;;19.60;11.40;;;;;;;5.29;100.00;101488.19;5043244;28;20199;-72
2021/10/27 02:31:24;;;;;;;18.23;11.27;;;;;;;5.26;100.00;101490.75;5035387;28;20247;-73
2021/10/27 02:33:51;;;;;;;18.57;10.50;;;;;;;5.28;100.00;101487.31;5043665;28;20203;-72
2021/10/27 02:36:17;;;;;;;18.17;10.33;;;;;;;5.27;100.00;101484.72;5035346;28;20204;-71
2021/10/27 02:38:43;;;;;;;21.60;11.87;;;;;;;5.28;100.00;101481.28;5038741;28;20209;-71
2021/10/27 02:41:11;;;;;;;16.30;10.03;;;;;;;5.27;100.00;101474.38;5033723;28;20315;-71
2021/10/27 02:43:37;;;;;;;17.80;10.77;;;;;;;5.27;100.00;101466.59;5040395;28;20684;-72
2021/10/27 02:46:06;;;;;;;20.13;11.20;;;;;;;5.28;100.00;101474.38;5037953;28;20290;-71
2021/10/27 02:48:32;;;;;;;22.83;11.43;;;;;;;5.32;100.00;101477.88;5038383;28;20232;-72
2021/10/27 02:50:59;;;;;;;18.73;12.10;;;;;;;5.31;100.00;101476.13;5035102;28;20231;-72
2021/10/27 02:53:29;;;;;;;18.13;12.20;;;;;;;5.31;100.00;101468.34;5043441;28;20303;-72
2021/10/27 02:55:56;;;;;;;24.67;11.10;;;;;;;5.31;100.00;101474.41;5039747;28;20205;-73
2021/10/27 02:58:22;;;;;;;21.47;12.07;;;;;;;5.31;100.00;101468.34;5043648;28;20716;-72
2021/10/27 03:00:49;;;;;;;21.57;12.03;;;;;;;5.34;100.00;101473.56;5044654;28;20217;-72
2021/10/27 03:03:17;;;;;;;20.57;11.57;;;;;;;5.34;100.00;101480.47;5044741;28;20251;-72
2021/10/27 03:05:44;;;;;;;22.73;12.27;;;;;;;5.38;100.00;101483.09;5044739;28;20209;-73
2021/10/27 03:08:10;;;;;;;20.90;11.57;;;;;;;5.42;100.00;101478.81;5040118;28;20192;-73
2021/10/27 03:10:36;;;;;;;21.47;11.93;;;;;;;5.41;100.00;101484.84;5045179;28;20206;-73
2021/10/27 03:13:03;;;;;;;23.87;12.10;;;;;;;5.38;100.00;101490.88;5035247;28;20200;-73
2021/10/27 03:15:29;;;;;;;19.93;11.57;;;;;;;5.39;100.00;101489.13;5044468;28;20198;-73
2021/10/27 03:17:56;;;;;;;20.43;12.10;;;;;;;5.38;100.00;101489.97;5044025;28;20212;-74
2021/10/27 03:20:24;;;;;;;21.10;12.33;;;;;;;5.39;100.00;101486.56;5040531;28;20200;-73
2021/10/27 03:22:50;;;;;;;21.97;11.80;;;;;;;5.41;100.00;101492.59;5035792;28;20226;-73
2021/10/27 03:25:17;;;;;;;24.67;12.83;;;;;;;5.46;100.00;101494.38;5036204;28;20200;-72
2021/10/27 03:27:43;;;;;;;23.23;12.87;;;;;;;5.53;100.00;101497.88;5044940;28;20236;-73
2021/10/27 03:30:10;;;;;;;23.47;13.30;;;;;;;5.62;100.00;101502.28;5044294;28;20545;-74
2021/10/27 03:32:37;;;;;;;25.67;13.27;;;;;;;5.66;100.00;101504.91;5042323;28;20223;-73
2021/10/27 03:35:04;;;;;;;24.83;13.13;;;;;;;5.72;100.00;101500.59;5040213;28;20204;-73
2021/10/27 03:37:31;;;;;;;22.23;12.47;;;;;;;5.73;100.00;101498.03;5035940;28;20212;-73
2021/10/27 03:39:58;;;;;;;26.20;14.23;;;;;;;5.75;100.00;101490.28;5039731;28;20216;-74
2021/10/27 03:42:25;;;;;;;25.97;13.67;;;;;;;5.82;100.00;101495.53;5037273;28;20225;-74
2021/10/27 03:44:51;;;;;;;24.53;13.17;;;;;;;5.86;100.00;101504.19;5034704;28;20261;-74
2021/10/27 03:47:18;;;;;;;24.37;13.30;;;;;;;5.94;100.00;101510.25;5038235;28;20184;-73
2021/10/27 03:49:44;;;;;;;28.67;13.87;;;;;;;5.97;100.00;101499.13;5037876;28;20287;-75
2021/10/27 03:52:11;;;;;;;29.07;13.70;;;;;;;6.01;100.00;101493.09;5037824;28;20230;-71
2021/10/27 03:54:38;;;;;;;24.23;12.80;;;;;;;6.02;100.00;101497.44;5041673;28;20199;-74
2021/10/27 03:57:05;;;;;;;25.77;13.57;;;;;;;6.04;100.00;101500.88;5040623;28;20227;-74
2021/10/27 03:59:32;;;;;;;24.87;13.13;;;;;;;6.04;100.00;101499.16;5041992;28;20569;-74
2021/10/27 04:01:58;;;;;;;26.23;14.03;;;;;;;6.05;100.00;101506.09;5040214;28;20290;-74
2021/10/27 04:04:25;;;;;;;31.43;12.50;;;;;;;6.06;100.00;101500.03;5044401;28;20736;-74
2021/10/27 04:06:51;;;;;;;26.40;12.73;;;;;;;6.11;100.00;101504.38;5038310;28;20192;-76
2021/10/27 04:09:17;;;;;;;23.23;12.43;;;;;;;6.07;100.00;101508.69;5046266;28;20204;-73
2021/10/27 04:11:46;;;;;;;21.50;13.00;;;;;;;6.07;100.00;101508.69;5049768;28;20591;-72
2021/10/27 04:14:12;;;;;;;24.00;12.63;;;;;;;6.07;100.00;101519.91;5039845;28;20207;-75
2021/10/27 04:16:39;;;;;;;22.47;12.67;;;;;;;6.07;100.00;101519.91;5038944;28;20207;-72
2021/10/27 04:19:05;;;;;;;21.57;12.20;;;;;;;6.07;100.00;101524.22;5037735;28;20222;-71
2021/10/27 04:21:32;;;;;;;22.20;12.83;;;;;;;6.03;100.00;101522.44;5040061;28;20230;-72
2021/10/27 04:23:58;;;;;;;22.40;11.83;;;;;;;6.01;100.00;101521.56;5042742;28;20671;-72
2021/10/27 04:26:25;;;;;;;22.90;11.87;;;;;;;5.99;100.00;101524.16;5041946;28;20207;-72
2021/10/27 04:28:53;;;;;;;21.20;12.17;;;;;;;6.01;100.00;101530.19;5037734;28;20552;-72
2021/10/27 04:31:21;;;;;;;25.97;12.07;;;;;;;6.04;100.00;101519.00;5036510;28;20216;-72
2021/10/27 04:33:48;;;;;;;22.43;12.17;;;;;;;6.07;100.00;101519.03;5039842;28;20569;-71
2021/10/27 04:36:15;;;;;;;25.70;12.60;;;;;;;6.10;100.00;101520.78;5036357;28;20204;-71
2021/10/27 04:38:41;;;;;;;24.50;12.43;;;;;;;6.10;100.00;101516.44;5036565;28;20218;-72
2021/10/27 04:41:08;;;;;;;23.63;12.03;;;;;;;6.11;100.00;101510.44;5040727;28;20589;-72
2021/10/27 04:43:34;;;;;;;23.80;12.50;;;;;;;6.11;100.00;101515.59;5044514;28;20199;-72
2021/10/27 04:46:02;;;;;;;23.73;12.03;;;;;;;6.11;100.00;101509.56;5040558;28;20208;-73
2021/10/27 04:48:28;;;;;;;25.13;12.37;;;;;;;6.10;100.00;101507.81;5041277;28;20207;-72
2021/10/27 04:50:55;;;;;;;20.37;11.10;;;;;;;6.13;100.00;101507.84;5035117;28;20223;-72
2021/10/27 04:53:24;;;;;;;19.37;11.50;;;;;;;6.08;100.00;101507.81;5042965;28;20700;-73
2021/10/27 04:55:51;;;;;;;23.17;11.80;;;;;;;6.10;100.00;101508.69;5036126;28;20277;-72
2021/10/27 04:58:18;;;;;;;19.53;10.80;;;;;;;6.07;100.00;101517.31;5033819;28;20211;-72
2021/10/27 05:00:45;;;;;;;18.07;11.60;;;;;;;6.01;100.00;101509.47;5030315;28;20200;-74
2021/10/27 05:03:13;;;;;;;16.70;10.30;;;;;;;5.95;100.00;101511.16;5029936;28;20215;-72
2021/10/27 05:05:45;;;;;;;20.00;10.33;;;;;;;5.97;100.00;101506.88;5032089;28;20608;-72
2021/10/27 05:08:11;;;;;;;22.43;11.07;;;;;;;5.94;100.00;101502.50;5040552;28;20199;-73
2021/10/27 05:10:38;;;;;;;18.40;10.50;;;;;;;5.90;100.00;101507.66;5033296;28;20693;-74
2021/10/27 05:13:04;;;;;;;19.43;10.87;;;;;;;5.93;100.00;101513.72;5035447;28;20207;-74
2021/10/27 05:15:30;;;;;;;18.67;9.87;;;;;;;5.93;100.00;101512.84;5040949;28;20203;-73
2021/10/27 05:17:57;;;;;;;19.93;10.47;;;;;;;5.98;100.00;101509.50;5034569;28;20224;-71
2021/10/27 05:20:24;;;;;;;21.87;11.63;;;;;;;6.07;100.00;101506.94;5040266;28;20284;-71
2021/10/27 05:22:51;;;;;;;23.03;12.37;;;;;;;6.07;100.00;101506.94;5034842;28;20884;-72
2021/10/27 05:25:17;;;;;;;22.00;12.43;;;;;;;6.09;100.00;101512.16;5037879;28;20226;-72
2021/10/27 05:27:44;;;;;;;22.53;11.70;;;;;;;6.13;100.00;101521.66;5040234;28;20199;-72
2021/10/27 05:30:11;;;;;;;23.00;11.73;;;;;;;6.15;100.00;101517.34;5031507;28;20207;-74
2021/10/27 05:32:37;;;;;;;24.57;12.13;;;;;;;6.18;100.00;101525.16;5033773;28;20228;-72
2021/10/27 05:35:04;;;;;;;21.60;11.40;;;;;;;6.17;100.00;101518.22;5031849;28;20665;-73
2021/10/27 05:37:32;;;;;;;23.53;11.67;;;;;;;6.15;100.00;101529.44;5039900;28;20667;-72
2021/10/27 05:39:58;;;;;;;25.20;11.77;;;;;;;6.12;100.00;101532.88;5031654;28;20206;-72
2021/10/27 05:42:28;;;;;;;21.93;11.23;;;;;;;6.10;100.00;101531.97;5038404;28;20318;-72
2021/10/27 05:44:54;;;;;;;17.60;11.10;;;;;;;6.09;100.00;101535.44;5031178;28;20204;-73
2021/10/27 05:47:21;;;;;;;20.13;10.80;;;;;;;6.09;100.00;101532.84;5035235;28;20253;-71
2021/10/27 05:49:51;;;;;;;17.67;10.53;;;;;;;6.10;100.00;101534.56;5038971;28;20291;-73
2021/10/27 05:57:50;;;;;;;19.83;10.73;;;;;;;6.18;100.00;101545.84;5032818;28;20703;-73
2021/10/27 06:00:17;;;;;;;18.13;10.83;;;;;;;6.23;100.00;101545.91;5036100;28;20418;-72
2021/10/27 06:02:43;;;;;;;17.67;10.30;;;;;;;6.29;100.00;101538.16;5040015;28;20664;-72
2021/10/27 06:05:10;;;;;;;25.93;12.23;;;;;;;6.38;100.00;101540.78;5035240;28;20219;-73
2021/10/27 06:07:37;;;;;;;23.63;11.40;;;;;;;6.46;100.00;101543.44;5043398;28;20202;-74
2021/10/27 06:10:06;;;;;;;25.60;12.47;;;;;;;6.52;100.00;101540.00;5034774;28;20234;-72
2021/10/27 06:12:36;;;;;;;23.63;12.17;;;;;;;6.58;100.00;101542.66;5034782;28;20234;-72
2021/10/27 06:15:03;;;;;;;24.70;12.43;;;;;;;6.63;100.00;101541.81;5035406;28;20664;-74
2021/10/27 06:17:30;;;;;;;23.10;12.83;;;;;;;6.70;100.00;101541.81;5045899;28;20213;-72
2021/10/27 06:19:57;;;;;;;25.13;12.50;;;;;;;6.75;100.00;101546.16;5039821;28;20286;-75
2021/10/27 06:22:23;;;;;;;22.30;12.37;;;;;;;6.82;100.00;101558.31;5032693;28;20719;-74
2021/10/27 06:24:53;;;;;;;27.20;13.13;;;;;;;6.88;100.00;101552.28;5038780;28;20204;-72
2021/10/27 06:27:22;;;;;;;25.60;13.43;;;;;;;6.93;100.00;101558.34;5041092;28;20621;-74
2021/10/27 06:29:53;;;;;;;25.73;13.60;;;;;;;7.03;100.00;101561.81;5034744;28;20211;-75
2021/10/27 06:32:27;;;;;;;22.07;12.83;;;;;;;7.07;100.00;101563.59;5036218;28;20708;-74
2021/10/27 06:34:57;;;;;;;20.87;12.40;;;;;;;7.13;100.00;101563.59;5037869;28;20203;-74
2021/10/27 06:37:44;;;;;;;22.20;12.93;;;;;;;7.19;100.00;101570.53;5040171;28;21105;-74
2021/10/27 06:46:13;;;;;;;25.03;12.23;;;;;;;7.41;100.00;101573.19;5046883;28;20195;-73
2021/10/27 06:48:39;;;;;;;23.63;11.77;;;;;;;7.50;100.00;101570.59;5042341;28;20211;-76
2021/10/27 06:51:05;;;;;;;26.17;16.07;;;;;;;7.56;100.00;101568.00;5046399;28;20232;-74
2021/10/27 06:53:32;;;;;;;28.33;21.40;;;;;;;7.62;100.00;101572.38;5045715;28;20200;-74
2021/10/27 06:56:00;;;;;;;18.30;13.47;;;;;;;7.68;100.00;101574.94;5035613;28;20211;-73
2021/10/27 06:58:30;;;;;;;18.77;11.90;;;;;;;7.75;100.00;101574.09;5045302;28;20302;-74
2021/10/27 07:00:59;;;;;;;17.87;11.17;;;;;;;7.81;100.00;101581.00;5048478;28;20721;-74
2021/10/27 07:03:56;;;;;;;18.83;10.03;;;;;;;7.87;100.00;101587.06;5043466;28;20257;-75
2021/10/27 07:17:21;;;;;;;11.93;8.27;;;;;;;8.13;100.00;101609.59;5044816;28;20692;-74
2021/10/27 07:19:48;;;;;;;13.37;8.33;;;;;;;8.18;100.00;101602.69;5047323;28;20236;-74
2021/10/27 07:22:14;;;;;;;11.40;7.83;;;;;;;8.21;100.00;101604.38;5039632;28;20220;-74
2021/10/27 07:24:41;;;;;;;12.70;7.70;;;;;;;8.26;100.00;101600.91;5036904;28;20307;-74
2021/10/27 07:27:09;;;;;;;11.87;8.17;;;;;;;8.32;100.00;101603.53;5038107;28;20200;-74
2021/10/27 07:29:41;;;;;;;10.03;7.53;;;;;;;8.41;100.00;101588.75;5039865;28;20259;-76
2021/10/27 07:32:10;;;;;;;11.67;7.70;;;;;;;8.49;100.00;101580.13;5042991;28;20558;-74
2021/10/27 07:34:39;;;;;;;11.77;6.80;;;;;;;8.58;100.00;101581.81;5034004;28;20235;-74
2021/10/27 07:40:06;;;;;;;12.77;7.33;;;;;;;8.71;100.00;101580.94;5037021;28;20317;-76
2021/10/27 07:42:34;;;;;;;10.20;6.47;;;;;;;8.73;100.00;101580.09;5043910;28;20225;-75
2021/10/27 07:45:03;;;;;;;8.70;5.97;;;;;;;8.76;100.00;101591.34;5035656;28;20296;-74
2021/10/27 07:47:30;;;;;;;8.93;6.00;;;;;;;8.79;100.00;101606.03;5048257;28;20211;-74
2021/10/27 07:49:56;;;;;;;8.03;5.97;;;;;;;8.84;100.00;101597.34;5040029;28;20233;-75
2021/10/27 07:52:23;;;;;;;6.93;5.37;;;;;;;8.90;100.00;101604.28;5045699;28;20230;-74
2021/10/27 07:54:50;;;;;;;10.43;6.20;;;;;;;9.01;100.00;101596.44;5043634;28;20202;-72
2021/10/27 07:57:18;;;;;;;12.50;6.10;;;;;;;9.13;100.00;101595.50;5049098;28;20205;-71
2021/10/27 07:59:44;;;;;;;9.27;6.30;;;;;;;9.29;100.00;101597.19;5044658;28;20232;-72
2021/10/27 08:02:12;;;;;;;9.17;6.60;;;;;;;9.50;100.00;101603.13;5040370;28;20222;-73
2021/10/27 08:04:39;;;;;;;7.80;6.13;;;;;;;9.69;100.00;101603.88;5040591;28;20208;-72
2021/10/27 08:07:06;;;;;;;10.63;6.33;;;;;;;9.84;100.00;101604.63;5038268;28;20204;-72
2021/10/27 08:09:33;;;;;;;8.50;6.00;;;;;;;9.88;100.00;101602.00;5033352;28;20311;-71
2021/10/27 08:11:59;;;;;;;10.17;5.80;;;;;;;9.97;100.00;101612.34;5047418;28;20647;-74
2021/10/27 08:14:25;;;;;;;8.67;5.53;;;;;;;10.07;100.00;101621.81;5040495;28;20211;-72
2021/10/27 08:16:52;;;;;;;10.30;5.23;;;;;;;10.12;100.00;101620.03;5036778;28;21553;-72
2021/10/27 08:19:20;;;;;;;6.53;4.63;;;;;;;10.15;100.00;101627.84;5039789;28;20301;-72
2021/10/27 08:21:47;;;;;;;9.97;7.43;;;;;;;10.22;100.00;101624.31;5043514;28;20273;-71
2021/10/27 08:24:20;;;;;;;7.80;5.33;;;;;;;10.30;100.00;101629.44;5037334;28;20215;-71
2021/10/27 08:26:52;;;;;;;6.63;4.70;;;;;;;10.35;100.00;101619.00;5036173;28;20205;-72
2021/10/27 08:29:23;;;;;;;6.63;5.07;;;;;;;10.45;100.00;101619.78;5039569;28;20206;-73
2021/10/27 08:31:55;;;;;;;6.27;4.50;;;;;;;10.50;100.00;101626.69;5039619;28;20220;-71
2021/10/27 08:34:34;;;;;;;8.13;4.40;;;;;;;10.52;100.00;101618.84;5036069;28;20569;-71
2021/10/27 08:37:00;;;;;;;7.57;3.80;;;;;;;10.55;100.00;101617.09;5043929;28;20211;-71
2021/10/27 08:39:27;;;;;;;7.00;4.00;;;;;;;10.59;100.00;101620.53;5036567;28;20218;-72
2021/10/27 08:41:54;;;;;;;7.43;4.50;;;;;;;10.67;100.00;101636.94;5039518;28;20603;-71
2021/10/27 08:44:20;;;;;;;5.67;4.80;;;;;;;10.76;100.00;101646.41;5041234;28;20205;-71
2021/10/27 08:46:47;;;;;;;7.83;5.23;;;;;;;10.80;100.00;101640.28;5044245;28;20199;-71
2021/10/27 08:49:17;;;;;;;7.87;4.77;;;;;;;10.77;100.00;101650.75;5036463;28;20207;-71
2021/10/27 08:51:46;;;;;;;9.50;4.87;;;;;;;10.80;100.00;101648.97;5047596;28;20234;-71
2021/10/27 08:54:13;;;;;;;8.37;4.80;;;;;;;10.85;100.00;101643.69;5041463;28;20769;-72
2021/10/27 08:56:40;;;;;;;4.87;4.30;;;;;;;10.88;100.00;101638.44;5040578;28;20233;-70
2021/10/27 08:59:11;;;;;;;5.47;4.50;;;;;;;10.91;100.00;101656.69;5040137;28;20728;-71
2021/10/27 09:01:48;;;;;;;7.27;4.40;;;;;;;10.94;100.00;101643.63;5032395;28;20224;-71
2021/10/27 09:04:24;;;;;;;5.80;4.50;;;;;;;10.98;100.00;101645.28;5038157;28;20188;-70
2021/10/27 09:07:13;;;;;;;7.07;4.20;;;;;;;11.05;100.00;101640.88;5034090;28;20217;-71
2021/10/27 09:15:47;;;;;;;9.57;3.97;;;;;;;11.09;100.00;101633.88;4990376;28;20211;-71
2021/10/27 09:41:42;;;;;;;5.20;3.10;;;;;;;11.14;100.00;101632.91;5031592;28;20236;-71
2021/10/27 09:47:33;;;;;;;6.17;3.67;;;;;;;11.20;100.00;101645.03;5014550;28;20214;-72
2021/10/27 10:04:15;;;;;;;5.13;3.60;;;;;;;11.20;100.00;101659.84;5030455;28;20548;-70
2021/10/27 10:06:44;;;;;;;3.80;3.37;;;;;;;11.21;100.00;101662.44;5034523;28;20587;-71
2021/10/27 10:09:12;;;;;;;4.80;3.40;;;;;;;11.25;100.00;101663.25;5035697;28;20229;-70
2021/10/27 10:11:39;;;;;;;4.37;3.83;;;;;;;11.31;100.00;101665.78;5040792;28;20220;-73
2021/10/27 10:14:09;;;;;;;3.83;3.23;;;;;;;11.33;100.00;101659.66;5040215;28;20701;-71
2021/10/27 10:16:38;;;;;;;10.53;3.70;;;;;;;11.33;100.00;101683.16;5043935;28;20716;-72
2021/10/27 10:19:08;;;;;;;4.83;3.50;;;;;;;11.39;100.00;101683.97;5052183;28;20220;-72
2021/10/27 10:21:36;;;;;;;3.87;3.10;;;;;;;11.42;99.62;101682.19;5037083;28;20215;-71
2021/10/27 10:24:37;;;;;;;4.23;3.00;;;;;;;11.47;99.39;101685.59;5045266;28;20210;-71
2021/10/27 10:27:08;;;;;;;5.10;3.53;;;;;;;11.48;99.83;101681.22;5048063;28;20198;-71
2021/10/27 10:29:45;;;;;;;4.80;3.70;;;;;;;11.54;100.00;101673.34;5039453;28;20550;-74
2021/10/27 10:32:34;;;;;;;8.47;4.50;;;;;;;11.55;99.69;101668.06;5033683;28;20232;-71
2021/10/27 10:35:09;;;;;;;7.03;4.27;;;;;;;11.54;99.88;101674.19;5036860;28;20195;-72
2021/10/27 10:37:40;;;;;;;5.83;3.60;;;;;;;11.58;99.71;101671.53;5040025;28;20777;-72
2021/10/27 10:58:11;;;;;;;7.10;3.33;;;;;;;11.63;99.34;101677.56;5036137;28;20213;-71
2021/10/27 11:01:07;;;;;;;6.60;3.00;;;;;;;11.63;100.00;101678.44;5037492;28;20210;-71
2021/10/27 11:03:50;;;;;;;4.80;3.10;;;;;;;11.60;100.00;101681.06;5042113;28;20235;-71
2021/10/27 11:22:21;;;;;;;5.23;3.40;;;;;;;11.64;100.00;101674.06;5045670;28;20207;-71
2021/10/27 11:23:43;;;;;;;7.60;4.30;;;;;;;11.62;100.00;101668.84;5042131;28;20220;-73
2021/10/27 11:37:36;;;;;;;6.20;3.17;;;;;;;11.65;99.43;101674.03;5035379;28;20211;-71
2021/10/27 11:40:13;;;;;;;3.10;2.77;;;;;;;11.66;98.85;101669.66;5044099;28;20629;-71
2021/10/27 11:42:47;;;;;;;4.57;2.63;;;;;;;11.66;99.77;101667.94;5040172;28;20225;-71
2021/10/27 11:45:24;;;;;;;3.43;2.60;;;;;;;11.68;99.24;101660.94;5042359;28;20218;-72
2021/10/27 11:47:55;;;;;;;4.60;2.87;;;;;;;11.69;100.00;101653.97;5034464;28;20730;-71
2021/10/27 11:50:23;;;;;;;3.93;3.20;;;;;;;11.67;98.92;101650.50;5047738;28;20282;-75
2021/10/27 11:52:53;;;;;;;9.13;2.90;;;;;;;11.71;99.63;101655.69;5042869;28;20305;-75
2021/10/27 11:55:20;;;;;;;3.47;2.23;;;;;;;11.77;98.96;101653.84;5044215;28;20658;-73
2021/10/27 11:57:53;;;;;;;3.43;2.97;;;;;;;11.77;98.28;101652.09;5037831;28;20197;-73
2021/10/27 12:00:26;;;;;;;3.13;2.13;;;;;;;11.83;99.79;101651.16;5041671;28;20595;-73
2021/10/27 12:02:57;;;;;;;3.30;2.70;;;;;;;11.85;99.73;101641.53;5041643;28;20227;-73
2021/10/27 12:05:25;;;;;;;2.73;2.40;;;;;;;11.84;100.00;101638.06;5037271;28;20586;-74
2021/10/27 12:11:08;;;;;;;3.67;2.60;;;;;;;11.83;98.65;101640.69;5034397;28;20227;-74
2021/10/27 12:13:44;;;;;;;3.60;2.63;;;;;;;11.85;99.52;101636.31;5041762;28;20576;-73
2021/10/27 12:19:00;;;;;;;5.77;3.03;;;;;;;11.84;99.40;101642.44;5041796;28;20209;-74
2021/10/27 12:21:28;;;;;;;4.83;2.70;;;;;;;11.82;98.43;101637.22;5036769;28;20242;-75
2021/10/27 12:23:56;;;;;;;6.47;2.70;;;;;;;11.83;99.34;101640.69;5038591;28;20257;-73
2021/10/27 12:26:24;;;;;;;4.77;3.23;;;;;;;11.83;99.10;101635.47;5036010;28;20222;-73
2021/10/27 12:29:02;;;;;;;3.60;2.90;;;;;;;11.82;98.89;101637.22;5044019;28;20191;-73
2021/10/27 12:31:30;;;;;;;3.93;2.70;;;;;;;11.81;98.61;101645.09;5038276;28;20261;-73
2021/10/27 12:33:56;;;;;;;3.30;2.70;;;;;;;11.78;99.16;101645.13;5045266;28;20195;-73
2021/10/27 12:36:26;;;;;;;3.60;2.90;;;;;;;11.79;99.78;101639.03;5040011;28;20211;-73
2021/10/27 12:39:10;;;;;;;4.13;3.20;;;;;;;11.78;99.93;101642.50;5049104;28;20255;-73
2021/10/27 12:41:37;;;;;;;4.00;3.10;;;;;;;11.78;99.80;101645.13;5037681;28;20225;-75
2021/10/27 12:44:21;;;;;;;4.70;2.73;;;;;;;11.78;99.86;101630.31;5044262;28;20206;-73
2021/10/27 12:46:48;;;;;;;5.53;2.90;;;;;;;11.81;99.72;101637.25;5040333;28;20306;-75
2021/10/27 12:49:20;;;;;;;3.93;3.00;;;;;;;11.82;100.00;101628.50;5041221;28;20203;-74
2021/10/27 12:51:47;;;;;;;4.40;2.90;;;;;;;11.80;99.09;101628.53;5039721;28;20215;-73
2021/10/27 12:54:27;;;;;;;3.47;2.80;;;;;;;11.84;99.47;101626.75;5037449;28;20298;-74
2021/10/27 12:57:04;;;;;;;3.43;2.57;;;;;;;11.85;99.85;101625.84;5048293;28;20577;-74
2021/10/27 12:59:32;;;;;;;6.00;2.80;;;;;;;11.89;100.00;101619.69;5039550;28;20728;-74
2021/10/27 13:02:07;;;;;;;3.73;2.40;;;;;;;11.93;100.00;101617.03;5045553;28;20231;-73
2021/10/27 13:04:38;;;;;;;4.00;2.90;;;;;;;11.93;99.38;101618.78;5038077;28;20212;-73
2021/10/27 13:07:09;;;;;;;5.73;2.73;;;;;;;11.94;99.00;101620.50;5050221;28;20723;-74
2021/10/27 13:15:12;;;;;;;3.67;2.67;;;;;;;11.98;99.47;101623.94;5028441;28;20586;-75
2021/10/27 13:18:09;;;;;;;3.20;2.47;;;;;;;11.94;98.98;101623.13;5041795;28;20892;-73
2021/10/27 13:20:58;;;;;;;4.43;2.50;;;;;;;11.97;99.23;101630.06;5038297;28;20227;-73
2021/10/27 13:23:38;;;;;;;3.33;2.30;;;;;;;12.02;99.69;101625.63;5040460;28;20207;-75
2021/10/27 13:31:48;;;;;;;5.43;2.50;;;;;;;12.00;99.40;101632.63;4980415;28;20882;-73
2021/10/27 13:34:14;;;;;;;3.30;2.40;;;;;;;12.01;100.00;101627.34;5019661;28;20203;-73
2021/10/27 13:36:41;;;;;;;4.67;2.80;;;;;;;12.02;100.00;101623.88;5039079;28;20202;-73